Pagina principale
METAR-TAF:

METAR-TAF

Aeroporti :

Cairns, Australia

latitudine: 16-53S, longitudine: 145-45E, altezza: 3 m

Osservazione

Il bollettino è stato emesso 29 minuti fa, alle 08:00 UTC
Vento 6 kt da sud
Temperature 24°C
Umidità 44%
Pressione 1014 hPa
Visibilità 10 km o più
nessuna nube inferiore a 1500 m e nessun cumulonembo

METAR: YBCS 180800Z 17006KT CAVOK 24/11 Q1014

Ora: 18:29 (08:29 UTC)

Previsione

Il bollettino è stato emesso 3 ore e 30 minuti fa, alle 04:59 UTC
Previsione valida dal 18 alle 06 UTC al 19 alle 06 UTC
Vento 12 kt da est/sud-est
Visibilità 10 km o più
Poco nuvoloso ad un'altezza di 3000 ft
A partire da 18 alle 0800 UTC
Vento 6 kt da sud
Visibilità 10 km o più
Poco nuvoloso ad un'altezza di 2500 ft
A partire da 19 alle 0100 UTC
Vento 10 kt da est/sud-est
Visibilità 10 km o più
Poco nuvoloso ad un'altezza di 3000 ft

TAF: YBCS 180459Z 1806/1906 11012KT 9999 FEW030 FM180800 17006KT 9999 FEW025 FM190100 12010KT 9999 FEW030

Osservazioni e previsioni meteorologiche di più di 4000 aeroporti (messaggi METAR e TAF).

Le stazioni disponibili sono rappresentate dai dischi gialli e rossi sulla carta.

Puntare il mouse per vedere il nome della stazione.

Clicca sopra per visualizzare le osservazioni e previsioni meteorologiche.

Per cambiare la mappa : fare clic sui pulsanti verdi con una croce nera per ingrandire, il pulsante verde con un trattino per diminuire, o sulla freccia verde per le mappe adiacenti.


METAR-TAF: